Time;durP1;ratioP1;P1;durP2;ratioP2;P2;SDS_P1;SDS_P2;PMS_P1;PMS_P2;Temp;Humidity;BMP_temperature;BMP_pressure;BME280_temperature;BME280_humidity;BME280_pressure;Samples;Min_cycle;Max_cycle;Signal;HPM_P1;HPM_P2
2022/05/13 00:01:21;;;;;;;5.93;2.63;;;18.30;99.90;;;;;;5044167;28;20506;-81
2022/05/13 00:04:06;;;;;;;2.60;1.90;;;18.30;99.90;;;;;;5048150;28;20442;-82
2022/05/13 00:06:53;;;;;;;3.53;2.00;;;18.50;99.90;;;;;;5042472;28;20497;-82
2022/05/13 00:12:40;;;;;;;2.17;2.00;;;18.60;99.90;;;;;;5033804;28;20387;-82
2022/05/13 00:15:26;;;;;;;2.23;2.00;;;18.60;99.90;;;;;;5046132;28;20391;-82
2022/05/13 00:18:11;;;;;;;3.33;3.03;;;18.60;99.90;;;;;;5045954;28;20387;-82
2022/05/13 00:20:58;;;;;;;2.00;1.90;;;18.60;99.90;;;;;;5004631;28;20428;-82
2022/05/13 00:23:42;;;;;;;2.30;2.03;;;18.50;99.90;;;;;;5018023;28;20404;-82
2022/05/13 00:26:27;;;;;;;2.27;1.97;;;18.60;99.90;;;;;;5004337;28;20440;-82
2022/05/13 00:29:11;;;;;;;2.90;1.97;;;18.50;99.90;;;;;;5004237;28;20397;-82
2022/05/13 00:31:56;;;;;;;3.00;2.10;;;18.60;99.90;;;;;;5003908;28;20458;-82
2022/05/13 00:34:40;;;;;;;4.00;2.70;;;18.60;99.90;;;;;;5003812;28;20632;-82
2022/05/13 00:37:25;;;;;;;3.00;2.23;;;18.60;99.90;;;;;;5003703;28;20420;-82
2022/05/13 00:40:11;;;;;;;4.97;2.00;;;18.60;99.90;;;;;;5018439;28;20412;-82
2022/05/13 00:43:06;;;;;;;3.33;2.20;;;18.50;99.90;;;;;;5003099;28;20439;-82
2022/05/13 00:45:51;;;;;;;4.47;3.17;;;18.40;99.90;;;;;;5003419;28;20413;-81
2022/05/13 00:48:35;;;;;;;2.17;1.97;;;18.50;99.90;;;;;;5017540;28;20384;-82
2022/05/13 00:51:29;;;;;;;2.20;2.00;;;18.40;99.90;;;;;;5019443;28;20409;-82
2022/05/13 00:54:16;;;;;;;5.27;2.63;;;18.30;99.90;;;;;;5045145;28;20422;-82
2022/05/13 00:57:01;;;;;;;2.00;1.53;;;18.40;99.90;;;;;;5045620;28;20433;-82
2022/05/13 00:59:46;;;;;;;2.43;2.23;;;18.30;99.90;;;;;;5029110;28;20402;-82
2022/05/13 01:02:33;;;;;;;2.37;2.00;;;18.20;99.90;;;;;;5015567;28;20515;-82
2022/05/13 01:05:18;;;;;;;2.37;2.17;;;18.30;99.90;;;;;;5045139;28;20429;-82
2022/05/13 01:08:06;;;;;;;2.73;2.20;;;18.30;99.90;;;;;;5063496;28;20462;-83
2022/05/13 01:10:51;;;;;;;5.30;2.60;;;18.30;99.90;;;;;;5064016;28;20386;-82
2022/05/13 01:13:37;;;;;;;1.83;1.73;;;18.30;99.90;;;;;;5064184;28;20394;-82
2022/05/13 01:16:21;;;;;;;3.57;2.13;;;18.30;99.90;;;;;;5064973;28;20390;-82
2022/05/13 01:19:06;;;;;;;4.23;2.20;;;18.40;99.90;;;;;;5064705;28;20478;-82
2022/05/13 01:21:51;;;;;;;3.53;1.93;;;18.40;99.90;;;;;;5064984;28;20445;-82
2022/05/13 01:24:36;;;;;;;3.80;1.90;;;18.20;99.90;;;;;;5064231;28;20893;-82
2022/05/13 01:27:20;;;;;;;3.00;2.00;;;18.20;99.90;;;;;;5064478;28;20389;-82
2022/05/13 01:30:05;;;;;;;3.70;2.40;;;18.30;99.90;;;;;;5064653;28;20460;-82
2022/05/13 01:32:52;;;;;;;2.80;2.20;;;18.30;99.90;;;;;;5064541;28;20385;-81
2022/05/13 01:35:39;;;;;;;4.30;1.70;;;18.10;99.90;;;;;;5049396;28;20475;-83
2022/05/13 01:38:28;;;;;;;5.97;2.10;;;18.10;99.90;;;;;;5063966;28;20382;-83
2022/05/13 01:41:13;;;;;;;2.60;2.00;;;17.80;99.90;;;;;;5063909;28;20430;-83
2022/05/13 01:43:58;;;;;;;4.40;2.07;;;17.70;99.90;;;;;;5048756;28;20395;-82
2022/05/13 01:46:43;;;;;;;2.80;1.93;;;17.50;99.90;;;;;;5064403;28;20413;-83
2022/05/13 01:49:27;;;;;;;2.13;1.93;;;17.50;99.90;;;;;;5049564;28;20889;-82
2022/05/13 01:52:12;;;;;;;1.73;1.63;;;17.60;99.90;;;;;;5065019;28;20393;-83
2022/05/13 01:54:56;;;;;;;3.90;2.27;;;17.50;99.90;;;;;;5064304;28;20458;-83
2022/05/13 01:57:40;;;;;;;2.60;2.40;;;17.60;99.90;;;;;;5069508;28;20492;-82
2022/05/13 02:00:25;;;;;;;1.90;1.80;;;17.80;99.90;;;;;;5063933;28;20409;-82
2022/05/13 02:06:23;;;;;;;3.50;1.90;;;17.90;99.90;;;;;;5050925;28;20492;-83
2022/05/13 02:09:08;;;;;;;2.53;2.33;;;18.00;99.90;;;;;;5064028;28;20383;-82
2022/05/13 02:11:52;;;;;;;4.47;2.57;;;18.00;99.90;;;;;;5063259;28;20918;-82
2022/05/13 02:14:37;;;;;;;2.87;2.53;;;18.00;99.90;;;;;;5035145;28;20409;-82
2022/05/13 02:17:21;;;;;;;4.17;2.40;;;17.60;99.90;;;;;;5064142;28;20408;-83
2022/05/13 02:20:10;;;;;;;3.40;2.10;;;17.40;99.90;;;;;;5063342;28;20421;-82
2022/05/13 02:22:55;;;;;;;10.13;2.90;;;17.30;99.90;;;;;;5048051;28;20546;-81
2022/05/13 02:25:40;;;;;;;3.77;2.03;;;17.20;99.90;;;;;;5063165;28;20405;-81
2022/05/13 02:28:25;;;;;;;4.40;2.30;;;17.10;99.90;;;;;;5062949;28;20405;-81
2022/05/13 02:31:11;;;;;;;9.17;2.80;;;17.10;99.90;;;;;;5048074;28;20882;-81
2022/05/13 02:33:55;;;;;;;2.30;2.10;;;17.20;99.90;;;;;;5068810;28;20385;-80
2022/05/13 02:36:40;;;;;;;3.40;2.30;;;17.10;99.90;;;;;;5071681;28;20457;-83
2022/05/13 02:39:25;;;;;;;2.40;2.20;;;17.10;99.90;;;;;;5071532;28;20385;-82
2022/05/13 02:42:09;;;;;;;6.07;2.50;;;17.20;99.90;;;;;;5066170;28;20469;-82
2022/05/13 02:44:54;;;;;;;4.57;1.87;;;17.20;99.90;;;;;;5064014;28;20390;-83
2022/05/13 02:47:40;;;;;;;6.27;2.90;;;17.30;99.90;;;;;;5065570;28;20381;-83
2022/05/13 02:50:27;;;;;;;3.33;2.07;;;17.40;99.90;;;;;;5071726;28;20373;-82
2022/05/13 02:53:12;;;;;;;4.50;2.20;;;17.40;99.90;;;;;;5074013;28;20424;-81
2022/05/13 02:55:57;;;;;;;2.40;2.10;;;17.50;99.90;;;;;;5049773;28;20625;-82
2022/05/13 02:58:42;;;;;;;2.80;2.60;;;17.60;99.90;;;;;;5048618;28;20385;-82
2022/05/13 03:01:26;;;;;;;3.00;2.30;;;17.60;99.90;;;;;;5063655;28;20468;-82
2022/05/13 03:04:10;;;;;;;3.13;2.47;;;17.60;99.90;;;;;;5063260;28;20835;-82
2022/05/13 03:06:55;;;;;;;2.33;2.07;;;17.70;99.90;;;;;;5052887;28;20469;-82
2022/05/13 03:09:39;;;;;;;5.17;2.03;;;17.70;99.90;;;;;;5028056;28;20471;-82
2022/05/13 03:12:24;;;;;;;4.93;2.33;;;17.60;99.90;;;;;;5027095;28;20761;-81
2022/05/13 03:15:10;;;;;;;4.07;2.40;;;17.70;99.90;;;;;;5042877;28;20594;-82
2022/05/13 03:17:55;;;;;;;4.00;1.70;;;17.70;99.90;;;;;;5027728;28;20406;-82
2022/05/13 03:20:40;;;;;;;4.93;2.03;;;17.70;99.90;;;;;;5043222;28;20387;-82
2022/05/13 03:23:25;;;;;;;3.40;1.80;;;17.60;99.90;;;;;;5024453;28;20523;-82
2022/05/13 03:26:11;;;;;;;2.23;2.07;;;17.60;99.90;;;;;;5029066;28;20379;-82
2022/05/13 03:28:56;;;;;;;3.30;2.87;;;17.60;99.90;;;;;;5046145;28;20938;-82
2022/05/13 03:31:40;;;;;;;3.70;2.30;;;17.50;99.90;;;;;;5045024;28;20442;-82
2022/05/13 03:34:26;;;;;;;2.50;2.30;;;17.40;99.90;;;;;;5030554;28;20386;-81
2022/05/13 03:37:11;;;;;;;2.20;2.00;;;17.20;99.90;;;;;;5015688;28;20412;-82
2022/05/13 03:39:55;;;;;;;3.77;2.20;;;16.90;99.90;;;;;;5045327;28;20402;-82
2022/05/13 03:42:40;;;;;;;10.60;2.70;;;16.70;99.90;;;;;;5029835;28;20437;-82
2022/05/13 03:45:26;;;;;;;2.40;1.93;;;16.60;99.90;;;;;;5044608;28;20456;-82
2022/05/13 03:48:11;;;;;;;6.00;2.40;;;16.50;99.90;;;;;;5042473;28;20418;-83
2022/05/13 03:50:55;;;;;;;8.07;2.60;;;16.50;99.90;;;;;;5053471;28;20929;-82
2022/05/13 03:53:40;;;;;;;2.63;2.43;;;16.70;99.90;;;;;;5064569;28;20918;-82
2022/05/13 03:56:25;;;;;;;2.80;2.33;;;16.40;99.90;;;;;;5052226;28;20826;-82
2022/05/13 03:59:32;;;;;;;4.23;2.60;;;16.40;99.90;;;;;;5057830;28;20401;-82
2022/05/13 04:02:16;;;;;;;2.20;2.00;;;16.50;99.90;;;;;;5042186;28;20542;-83
2022/05/13 04:10:52;;;;;;;2.73;2.43;;;16.80;99.90;;;;;;5041055;28;20778;-83
2022/05/13 04:16:33;;;;;;;7.30;2.80;;;17.00;99.90;;;;;;5041996;28;20438;-82
2022/05/13 04:19:19;;;;;;;5.63;2.30;;;17.10;99.90;;;;;;5041745;28;20391;-82
2022/05/13 04:22:04;;;;;;;4.30;1.87;;;17.20;99.90;;;;;;5042192;28;20450;-83
2022/05/13 04:24:54;;;;;;;2.57;2.30;;;17.30;99.90;;;;;;5041839;28;20387;-83
2022/05/13 04:27:41;;;;;;;4.43;2.23;;;17.30;99.90;;;;;;5014015;28;20415;-83
2022/05/13 04:30:25;;;;;;;2.40;2.20;;;17.30;99.90;;;;;;5041306;28;20419;-82
2022/05/13 04:33:14;;;;;;;6.40;2.10;;;17.30;99.90;;;;;;5035300;28;20426;-82
2022/05/13 04:35:59;;;;;;;5.70;2.40;;;17.30;99.90;;;;;;5042271;28;20387;-81
2022/05/13 04:38:44;;;;;;;4.70;2.50;;;17.20;99.90;;;;;;5041976;28;20418;-83
2022/05/13 04:44:26;;;;;;;7.00;1.90;;;17.30;99.90;;;;;;5061348;28;20398;-80
2022/05/13 04:50:07;;;;;;;5.93;3.13;;;17.50;99.90;;;;;;5062924;28;20478;-82
2022/05/13 04:52:52;;;;;;;3.23;2.20;;;17.50;99.90;;;;;;5048383;28;20777;-82
2022/05/13 04:55:37;;;;;;;3.27;2.83;;;17.70;99.90;;;;;;5063508;28;20422;-82
2022/05/13 04:58:23;;;;;;;6.60;2.80;;;17.70;99.90;;;;;;5064263;28;20390;-82
2022/05/13 05:01:09;;;;;;;5.10;3.53;;;17.80;99.90;;;;;;5064380;28;20456;-82
2022/05/13 05:03:53;;;;;;;12.67;2.87;;;17.80;99.90;;;;;;5063760;28;20425;-81
2022/05/13 05:06:38;;;;;;;4.15;2.90;;;17.90;99.90;;;;;;5061933;28;20439;-83
2022/05/13 05:09:24;;;;;;;3.43;3.07;;;17.80;99.90;;;;;;5049154;28;20463;-83
2022/05/13 05:12:09;;;;;;;6.33;2.47;;;17.90;99.90;;;;;;5064517;28;20465;-82
2022/05/13 05:14:54;;;;;;;2.70;2.43;;;17.80;99.90;;;;;;5065202;28;20402;-83
2022/05/13 05:17:38;;;;;;;7.93;2.27;;;17.70;99.90;;;;;;5064719;28;20457;-83
2022/05/13 05:20:23;;;;;;;3.47;3.10;;;17.60;99.90;;;;;;5037875;28;20436;-82
2022/05/13 05:23:14;;;;;;;3.03;2.70;;;17.60;99.90;;;;;;5075071;28;20468;-81
2022/05/13 05:25:59;;;;;;;3.97;3.50;;;17.50;99.90;;;;;;5063576;28;20530;-81
2022/05/13 05:28:44;;;;;;;5.10;2.40;;;17.50;99.90;;;;;;5075424;28;20448;-82
2022/05/13 05:31:28;;;;;;;3.97;2.23;;;17.40;99.90;;;;;;5064158;28;20378;-83
2022/05/13 05:34:13;;;;;;;4.13;2.77;;;17.50;99.90;;;;;;5033025;28;20424;-83
2022/05/13 05:36:58;;;;;;;2.70;2.10;;;17.60;99.90;;;;;;5058272;28;20437;-83
2022/05/13 05:39:43;;;;;;;5.00;2.20;;;17.60;99.90;;;;;;5046155;28;20528;-82
2022/05/13 05:42:27;;;;;;;3.87;2.30;;;17.60;99.90;;;;;;5046076;28;20477;-83
2022/05/13 05:45:14;;;;;;;7.10;2.90;;;17.70;99.90;;;;;;4995977;28;21019;-82
2022/05/13 05:47:59;;;;;;;3.57;2.47;;;17.60;99.90;;;;;;5005069;28;20624;-83
2022/05/13 05:50:43;;;;;;;1.93;1.83;;;17.70;99.90;;;;;;5006259;28;20483;-83
2022/05/13 05:59:27;;;;;;;3.97;2.80;;;18.00;99.90;;;;;;5021814;28;20858;-83
2022/05/13 06:02:13;;;;;;;2.43;2.23;;;18.20;99.90;;;;;;5027270;28;20486;-81
2022/05/13 06:04:58;;;;;;;3.60;3.30;;;18.20;99.90;;;;;;5027458;28;20432;-80
2022/05/13 06:07:45;;;;;;;3.27;2.37;;;18.30;99.90;;;;;;5008202;28;20621;-82
2022/05/13 06:10:31;;;;;;;5.80;2.63;;;18.30;99.90;;;;;;5033560;28;20434;-82
2022/05/13 06:13:16;;;;;;;5.00;2.67;;;18.30;99.90;;;;;;5017206;28;20410;-80
2022/05/13 06:16:00;;;;;;;5.83;2.80;;;18.40;99.90;;;;;;5047040;28;20445;-82
2022/05/13 06:18:45;;;;;;;2.70;2.50;;;18.30;99.90;;;;;;5070967;28;20437;-82
2022/05/13 06:21:33;;;;;;;4.07;2.47;;;18.20;99.90;;;;;;5056561;28;20437;-84
2022/05/13 06:24:22;;;;;;;3.07;2.60;;;18.30;99.90;;;;;;5068418;28;20480;-83
2022/05/13 06:27:07;;;;;;;3.00;2.70;;;18.40;99.90;;;;;;5030104;28;20437;-82
2022/05/13 06:29:53;;;;;;;6.40;3.20;;;18.50;99.90;;;;;;5041965;28;20449;-81
2022/05/13 06:32:38;;;;;;;3.60;3.33;;;18.60;99.90;;;;;;5037270;28;20492;-81
2022/05/13 06:35:25;;;;;;;2.90;2.67;;;18.70;99.90;;;;;;5038044;28;20523;-81
2022/05/13 06:38:20;;;;;;;2.77;2.57;;;18.90;99.90;;;;;;5051255;28;20448;-79
2022/05/13 06:41:04;;;;;;;2.80;2.60;;;18.90;99.90;;;;;;5038772;28;20514;-82
2022/05/13 06:43:52;;;;;;;5.00;3.20;;;18.90;99.90;;;;;;5047346;28;20445;-81
2022/05/13 06:46:39;;;;;;;4.07;2.97;;;18.90;99.90;;;;;;5033466;28;20430;-84
2022/05/13 06:49:23;;;;;;;7.67;2.97;;;19.00;99.90;;;;;;5034439;28;20898;-83
2022/05/13 06:52:13;;;;;;;3.90;3.30;;;19.00;99.90;;;;;;5058122;28;20426;-81
2022/05/13 06:54:59;;;;;;;3.33;3.13;;;18.80;99.90;;;;;;5035076;28;20525;-82
2022/05/13 06:57:46;;;;;;;3.27;3.00;;;18.90;99.90;;;;;;5040287;28;20534;-82
2022/05/13 07:00:30;;;;;;;2.47;2.27;;;19.00;99.90;;;;;;5047263;28;20430;-82
2022/05/13 07:03:18;;;;;;;5.60;2.70;;;19.10;99.90;;;;;;5045891;28;20460;-82
2022/05/13 07:06:04;;;;;;;6.40;2.67;;;19.00;99.90;;;;;;5051463;28;20496;-82
2022/05/13 07:08:50;;;;;;;5.27;3.00;;;19.10;99.90;;;;;;5067857;28;20430;-83
2022/05/13 07:11:35;;;;;;;4.77;2.27;;;19.00;99.90;;;;;;5052961;28;20505;-81
2022/05/13 07:14:22;;;;;;;5.53;2.60;;;19.10;99.90;;;;;;5062137;28;20520;-81
2022/05/13 07:17:07;;;;;;;3.50;3.10;;;19.10;99.90;;;;;;5063647;28;20736;-82
2022/05/13 07:19:52;;;;;;;5.67;2.87;;;19.10;99.90;;;;;;5061609;28;20430;-78
2022/05/13 07:22:37;;;;;;;3.03;2.80;;;19.10;99.90;;;;;;5049025;28;20457;-82
2022/05/13 07:25:22;;;;;;;4.00;2.87;;;19.20;99.90;;;;;;5050221;28;20426;-80
2022/05/13 07:28:07;;;;;;;9.40;3.30;;;19.20;99.90;;;;;;5040980;28;20521;-78
2022/05/13 07:30:51;;;;;;;3.07;2.77;;;19.30;99.90;;;;;;5042023;28;20436;-80
2022/05/13 07:33:36;;;;;;;3.43;2.77;;;19.30;99.90;;;;;;5058905;28;20425;-78
2022/05/13 07:36:20;;;;;;;8.00;3.63;;;19.30;99.90;;;;;;5053772;28;20430;-82
2022/05/13 07:42:02;;;;;;;3.30;2.53;;;19.50;99.90;;;;;;5057758;28;20518;-81
2022/05/13 07:44:50;;;;;;;3.43;3.17;;;19.50;99.90;;;;;;5051666;28;20421;-82
2022/05/13 07:47:35;;;;;;;6.07;3.63;;;19.50;99.90;;;;;;5036321;28;20447;-82
2022/05/13 07:50:19;;;;;;;3.93;2.80;;;19.70;99.90;;;;;;5044026;28;20489;-79
2022/05/13 07:53:04;;;;;;;4.93;2.80;;;19.70;99.90;;;;;;5047776;28;20433;-83
2022/05/13 07:55:48;;;;;;;3.00;2.43;;;20.00;99.90;;;;;;5042877;28;20461;-82
2022/05/13 07:58:33;;;;;;;4.93;2.57;;;20.10;99.90;;;;;;5053385;28;20428;-83
2022/05/13 08:01:18;;;;;;;2.83;2.63;;;20.10;99.90;;;;;;5045123;28;20994;-82
2022/05/13 08:04:03;;;;;;;3.67;3.30;;;20.20;99.90;;;;;;5053004;28;20493;-83
2022/05/13 08:06:51;;;;;;;5.70;3.27;;;20.40;99.90;;;;;;5068949;28;20468;-80
2022/05/13 08:09:38;;;;;;;3.13;2.53;;;20.40;99.90;;;;;;5003088;28;20492;-81
2022/05/13 08:12:22;;;;;;;3.53;2.80;;;20.20;99.90;;;;;;5058833;28;20456;-81
2022/05/13 08:15:08;;;;;;;5.77;3.00;;;20.20;99.90;;;;;;5064130;28;20441;-80
2022/05/13 08:17:53;;;;;;;3.53;2.40;;;20.30;99.90;;;;;;5059078;28;20461;-81
2022/05/13 08:20:38;;;;;;;4.37;2.53;;;20.40;99.90;;;;;;5057098;28;20446;-81
2022/05/13 08:23:23;;;;;;;2.40;2.10;;;20.60;99.90;;;;;;5035298;28;20488;-79
2022/05/13 08:26:08;;;;;;;3.27;2.33;;;20.60;99.90;;;;;;5035529;28;20459;-80
2022/05/13 08:28:53;;;;;;;2.40;2.20;;;20.50;99.90;;;;;;5060465;28;20492;-81
2022/05/13 08:31:38;;;;;;;2.17;2.03;;;20.60;99.90;;;;;;5061955;28;20418;-81
2022/05/13 08:34:23;;;;;;;7.00;2.43;;;20.50;99.90;;;;;;5061604;28;20481;-81
2022/05/13 08:37:08;;;;;;;4.57;2.97;;;20.20;99.90;;;;;;5061583;28;20483;-81
2022/05/13 08:39:55;;;;;;;3.73;2.50;;;20.20;99.90;;;;;;5069573;28;20452;-81
2022/05/13 08:42:46;;;;;;;5.30;2.53;;;20.20;99.90;;;;;;5075545;28;20465;-79
2022/05/13 08:45:32;;;;;;;3.80;2.40;;;20.30;99.90;;;;;;5068964;28;20438;-80
2022/05/13 08:48:23;;;;;;;7.80;2.40;;;20.20;99.90;;;;;;5061552;28;20478;-81
2022/05/13 08:51:27;;;;;;;2.50;2.27;;;20.50;99.90;;;;;;5040429;28;25145;-79
2022/05/13 08:54:15;;;;;;;3.43;2.60;;;20.60;99.90;;;;;;5046859;28;20631;-80
2022/05/13 08:57:05;;;;;;;3.90;2.00;;;20.80;99.90;;;;;;5060127;28;20480;-81
2022/05/13 08:59:58;;;;;;;5.23;2.30;;;20.90;99.90;;;;;;5059191;28;20438;-81
2022/05/13 09:03:14;;;;;;;3.53;2.20;;;20.90;99.90;;;;;;5062315;28;20449;-81
2022/05/13 09:06:11;;;;;;;2.37;1.97;;;21.00;99.90;;;;;;5058451;28;20794;-81
2022/05/13 09:09:02;;;;;;;2.70;2.50;;;20.80;99.90;;;;;;5057780;28;20434;-81
2022/05/13 09:12:01;;;;;;;4.93;2.13;;;20.80;99.90;;;;;;5051101;28;20425;-80
2022/05/13 09:14:52;;;;;;;4.97;2.50;;;20.80;99.90;;;;;;5045880;28;20461;-80
2022/05/13 09:17:42;;;;;;;6.40;2.33;;;21.00;99.90;;;;;;5046839;28;20453;-80
2022/05/13 09:20:27;;;;;;;2.33;2.13;;;20.80;99.90;;;;;;5060946;28;20438;-80
2022/05/13 09:23:12;;;;;;;3.33;2.20;;;21.00;99.90;;;;;;5047706;28;20545;-80
2022/05/13 09:26:14;;;;;;;4.10;2.63;;;20.70;99.90;;;;;;5060973;28;20506;-81
2022/05/13 09:29:19;;;;;;;3.60;2.20;;;21.10;99.90;;;;;;5057835;28;20949;-79
2022/05/13 09:32:07;;;;;;;3.13;1.87;;;21.00;99.90;;;;;;5042971;28;20441;-81
2022/05/13 09:35:18;;;;;;;2.40;2.03;;;21.20;99.90;;;;;;5058029;28;20441;-79
2022/05/13 09:38:21;;;;;;;11.97;1.90;;;21.10;99.90;;;;;;5056569;28;20930;-81
2022/05/13 09:41:08;;;;;;;4.20;2.17;;;20.90;99.90;;;;;;5015366;28;20438;-80
2022/05/13 09:43:55;;;;;;;4.43;2.13;;;21.10;99.90;;;;;;5001556;28;20439;-80
2022/05/13 09:46:45;;;;;;;9.10;2.17;;;21.50;99.90;;;;;;5028764;28;20466;-80
2022/05/13 09:49:33;;;;;;;2.80;2.20;;;21.80;99.90;;;;;;5035150;28;20481;-81
2022/05/13 09:52:28;;;;;;;4.60;2.30;;;21.80;99.90;;;;;;5036400;28;20469;-81
2022/05/13 09:55:23;;;;;;;7.67;2.37;;;21.80;99.90;;;;;;5043899;28;20490;-80
2022/05/13 09:58:17;;;;;;;2.80;2.00;;;21.90;99.00;;;;;;5037047;28;20470;-79
2022/05/13 10:01:09;;;;;;;5.40;1.90;;;21.80;99.90;;;;;;5014743;28;20477;-80
2022/05/13 10:04:08;;;;;;;3.07;2.00;;;21.60;99.90;;;;;;5034671;28;20504;-80
2022/05/13 10:07:13;;;;;;;3.13;2.83;;;21.70;99.90;;;;;;5024920;28;20912;-81
2022/05/13 10:16:28;;;;;;;16.67;3.50;;;21.50;99.60;;;;;;5042298;28;20446;-81
2022/05/13 10:19:37;;;;;;;2.73;2.20;;;21.70;99.50;;;;;;5030551;28;20450;-81
2022/05/13 10:22:29;;;;;;;2.43;2.20;;;22.10;99.90;;;;;;5015714;28;20465;-80
2022/05/13 10:25:28;;;;;;;7.40;1.63;;;22.30;99.90;;;;;;5037711;28;20575;-81
2022/05/13 10:28:16;;;;;;;4.23;2.70;;;22.60;99.70;;;;;;5021072;28;20450;-80
2022/05/13 10:31:08;;;;;;;8.20;2.20;;;22.90;99.10;;;;;;5027670;28;20434;-80
2022/05/13 10:34:08;;;;;;;4.20;2.17;;;23.10;97.90;;;;;;5025019;28;20467;-79
2022/05/13 10:37:04;;;;;;;2.00;1.80;;;23.10;99.30;;;;;;5052076;28;20453;-80
2022/05/13 10:40:03;;;;;;;2.30;2.10;;;22.60;97.40;;;;;;5048735;28;20557;-81
2022/05/13 10:43:09;;;;;;;2.00;1.80;;;22.50;97.20;;;;;;5039064;28;20821;-78
2022/05/13 10:45:59;;;;;;;3.27;1.90;;;22.40;97.70;;;;;;5040335;28;20439;-81
2022/05/13 10:48:48;;;;;;;3.40;1.80;;;22.30;94.90;;;;;;5045005;28;20469;-81
2022/05/13 10:51:44;;;;;;;2.10;1.70;;;22.40;94.60;;;;;;5028128;28;21024;-80
2022/05/13 10:55:08;;;;;;;2.43;2.23;;;22.50;94.50;;;;;;5046109;28;20922;-79
2022/05/13 10:58:19;;;;;;;2.47;2.30;;;22.60;93.60;;;;;;5039459;28;21074;-80
2022/05/13 11:01:40;;;;;;;4.03;1.80;;;22.90;92.80;;;;;;5031606;28;20462;-80
2022/05/13 11:05:02;;;;;;;2.90;1.70;;;23.20;91.40;;;;;;5029165;28;20950;-82
2022/05/13 11:07:59;;;;;;;2.70;2.50;;;23.50;91.30;;;;;;5058844;28;20469;-82
2022/05/13 11:11:02;;;;;;;2.80;2.40;;;24.00;90.70;;;;;;5032261;28;20501;-83
2022/05/13 11:14:11;;;;;;;2.33;2.17;;;24.30;91.50;;;;;;5036047;28;20471;-81
2022/05/13 11:17:11;;;;;;;2.70;1.87;;;24.40;90.10;;;;;;5056384;28;20451;-81
2022/05/13 11:20:22;;;;;;;3.23;1.80;;;24.70;86.30;;;;;;5053961;28;20428;-83
2022/05/13 11:23:31;;;;;;;1.70;1.60;;;24.60;88.50;;;;;;5038298;28;20469;-83
2022/05/13 11:26:24;;;;;;;4.50;2.27;;;24.70;85.40;;;;;;5045275;28;20416;-82
2022/05/13 11:29:16;;;;;;;6.00;2.17;;;24.90;85.60;;;;;;5037276;28;20433;-82
2022/05/13 11:32:25;;;;;;;3.37;1.60;;;24.90;85.30;;;;;;5042013;28;20468;-82
2022/05/13 11:35:31;;;;;;;2.10;1.90;;;25.10;83.50;;;;;;5058364;28;20445;-80
2022/05/13 11:38:24;;;;;;;6.20;2.30;;;25.50;82.60;;;;;;5071349;28;20810;-79
2022/05/13 11:41:13;;;;;;;3.97;2.10;;;25.50;80.50;;;;;;5033173;28;22027;-79
2022/05/13 11:44:02;;;;;;;5.00;2.30;;;25.30;82.10;;;;;;5059795;28;20464;-82
2022/05/13 11:47:14;;;;;;;6.00;2.17;;;25.30;80.30;;;;;;5029376;28;20424;-82
2022/05/13 11:49:59;;;;;;;2.70;2.00;;;25.40;80.70;;;;;;5045585;28;20961;-83
2022/05/13 11:52:46;;;;;;;4.60;1.83;;;25.30;81.20;;;;;;5047311;28;20420;-81
2022/05/13 11:55:49;;;;;;;3.77;1.97;;;26.10;77.20;;;;;;5053602;28;20476;-83
2022/05/13 11:58:48;;;;;;;6.50;2.23;;;26.20;69.60;;;;;;5055473;28;20971;-83
2022/05/13 12:01:53;;;;;;;4.00;1.80;;;26.40;69.80;;;;;;5038906;28;20481;-83
2022/05/13 12:05:04;;;;;;;4.00;2.33;;;26.50;69.20;;;;;;5048119;28;20764;-80
2022/05/13 12:08:07;;;;;;;2.43;2.23;;;26.70;70.40;;;;;;5041158;28;20486;-80
2022/05/13 12:11:13;;;;;;;6.53;2.07;;;26.00;72.30;;;;;;5030929;28;20466;-79
2022/05/13 12:14:13;;;;;;;4.40;2.30;;;26.50;71.00;;;;;;5043968;28;20492;-80
2022/05/13 12:17:11;;;;;;;2.60;2.40;;;26.50;66.40;;;;;;5048809;28;20438;-81
2022/05/13 12:20:21;;;;;;;2.10;1.70;;;26.10;69.80;;;;;;5031083;28;20423;-80
2022/05/13 12:23:38;;;;;;;2.33;1.87;;;26.40;68.80;;;;;;5009942;28;20509;-81
2022/05/13 12:26:44;;;;;;;3.53;2.23;;;26.90;67.80;;;;;;5028951;28;20465;-80
2022/05/13 12:30:00;;;;;;;2.90;2.27;;;27.20;61.10;;;;;;5031874;28;20523;-81
2022/05/13 12:32:48;;;;;;;8.00;1.80;;;27.20;62.40;;;;;;5043098;28;20421;-81
2022/05/13 12:39:04;;;;;;;7.57;2.30;;;27.40;61.60;;;;;;5055834;28;20499;-81
2022/05/13 12:42:06;;;;;;;2.13;1.77;;;28.10;60.50;;;;;;5047190;28;20472;-80
2022/05/13 12:45:02;;;;;;;6.53;2.47;;;28.30;59.70;;;;;;5037276;28;20434;-78
2022/05/13 12:48:10;;;;;;;1.97;1.87;;;28.20;58.40;;;;;;5053948;28;20198;-81
2022/05/13 12:51:16;;;;;;;5.27;2.80;;;27.90;60.20;;;;;;5066041;28;20207;-81
2022/05/13 12:54:01;;;;;;;10.10;1.90;;;27.40;59.90;;;;;;5055949;28;20209;-82
2022/05/13 12:56:51;;;;;;;2.90;1.83;;;28.40;59.60;;;;;;5069715;28;20205;-79
2022/05/13 12:59:39;;;;;;;8.10;1.93;;;28.70;59.60;;;;;;5055743;28;20170;-79
2022/05/13 13:02:29;;;;;;;6.53;2.07;;;28.60;57.80;;;;;;5030561;28;20440;-78
2022/05/13 13:05:28;;;;;;;3.83;1.80;;;28.00;56.80;;;;;;5054217;28;20422;-78
2022/05/13 13:08:16;;;;;;;3.00;1.80;;;27.20;59.30;;;;;;5073856;28;20519;-80
2022/05/13 13:11:09;;;;;;;14.67;2.20;;;27.40;58.40;;;;;;5063140;28;20427;-78
2022/05/13 13:14:13;;;;;;;2.80;1.73;;;28.00;57.50;;;;;;5029635;28;20448;-78
2022/05/13 13:17:10;;;;;;;3.23;1.67;;;26.90;57.50;;;;;;5029992;28;20461;-82
2022/05/13 13:20:00;;;;;;;1.73;1.33;;;27.70;58.60;;;;;;5031080;28;20437;-84
2022/05/13 13:22:49;;;;;;;4.60;1.70;;;27.00;59.20;;;;;;5038504;28;20456;-83
2022/05/13 13:25:39;;;;;;;2.37;1.37;;;27.50;57.00;;;;;;5030547;28;20432;-81
2022/05/13 13:28:28;;;;;;;3.50;2.53;;;27.20;59.00;;;;;;5029466;28;20420;-84
2022/05/13 13:31:16;;;;;;;2.53;1.80;;;27.70;58.00;;;;;;5063001;28;20441;-84
2022/05/13 13:34:01;;;;;;;1.50;1.40;;;26.00;58.00;;;;;;5062257;28;20467;-83
2022/05/13 13:36:46;;;;;;;3.40;1.70;;;26.80;56.30;;;;;;5039904;28;20514;-84
2022/05/13 13:39:32;;;;;;;1.60;1.50;;;27.30;58.00;;;;;;5061454;28;20440;-84
2022/05/13 13:42:23;;;;;;;2.57;2.17;;;27.50;56.40;;;;;;5057796;28;20617;-82
2022/05/13 13:45:12;;;;;;;4.50;1.50;;;26.90;54.80;;;;;;5040094;28;20409;-84
2022/05/13 13:47:57;;;;;;;4.33;1.30;;;27.20;54.40;;;;;;5044190;28;21664;-83
2022/05/13 13:50:53;;;;;;;2.83;1.87;;;27.50;55.80;;;;;;5048130;28;20429;-83
2022/05/13 13:53:39;;;;;;;2.23;1.57;;;27.00;56.10;;;;;;5033470;28;20798;-84
2022/05/13 13:56:24;;;;;;;4.07;1.70;;;27.30;54.90;;;;;;5050388;28;20503;-85
2022/05/13 13:59:33;;;;;;;4.00;1.43;;;27.20;56.20;;;;;;5028706;28;20436;-83
2022/05/13 14:02:39;;;;;;;1.73;1.23;;;27.10;57.00;;;;;;5036415;28;20870;-81
2022/05/13 14:05:43;;;;;;;3.27;1.50;;;27.60;53.00;;;;;;5057445;28;20433;-81
2022/05/13 14:08:30;;;;;;;1.90;1.80;;;27.10;53.90;;;;;;5049570;28;21031;-83
2022/05/13 14:11:18;;;;;;;4.90;1.67;;;27.30;55.20;;;;;;5058622;28;20434;-79
2022/05/13 14:14:10;;;;;;;1.70;1.60;;;26.90;53.90;;;;;;5048516;28;20429;-79
2022/05/13 14:17:02;;;;;;;2.80;1.93;;;27.20;53.70;;;;;;5001585;28;20468;-80
2022/05/13 14:19:53;;;;;;;2.20;1.63;;;27.10;54.90;;;;;;5050774;28;20425;-82
2022/05/13 14:22:53;;;;;;;2.20;1.97;;;26.80;55.10;;;;;;5044646;28;20457;-82
2022/05/13 14:25:41;;;;;;;2.60;1.83;;;26.70;55.90;;;;;;5056471;28;20806;-82
2022/05/13 14:28:30;;;;;;;6.17;2.03;;;26.60;56.10;;;;;;5043660;28;20492;-83
2022/05/13 14:31:35;;;;;;;2.00;1.90;;;26.60;57.30;;;;;;5058627;28;20506;-82
2022/05/13 14:34:26;;;;;;;7.47;2.27;;;26.50;57.90;;;;;;5059222;28;20405;-81
2022/05/13 14:37:28;;;;;;;2.07;1.40;;;26.50;57.10;;;;;;5062802;28;20424;-81
2022/05/13 14:40:15;;;;;;;3.57;1.63;;;26.30;55.30;;;;;;5043456;28;20467;-80
2022/05/13 14:43:05;;;;;;;1.73;1.30;;;26.40;57.10;;;;;;5070497;28;20525;-83
2022/05/13 14:45:53;;;;;;;4.67;1.90;;;26.10;57.80;;;;;;5061254;28;20450;-82
2022/05/13 14:48:38;;;;;;;3.43;1.90;;;26.30;56.80;;;;;;5048683;28;20439;-82
2022/05/13 14:51:26;;;;;;;7.03;2.30;;;26.70;56.20;;;;;;5057711;28;20433;-82
2022/05/13 14:54:12;;;;;;;4.50;2.13;;;26.50;55.30;;;;;;5042244;28;20491;-83
2022/05/13 14:57:06;;;;;;;1.80;1.67;;;26.30;55.40;;;;;;5048698;28;20472;-83
2022/05/13 15:00:04;;;;;;;3.77;2.10;;;26.30;57.20;;;;;;5031745;28;20916;-82
2022/05/13 15:03:05;;;;;;;1.40;1.30;;;26.50;56.80;;;;;;5059488;28;20507;-79
2022/05/13 15:05:51;;;;;;;1.57;1.47;;;26.40;57.50;;;;;;5056544;28;20463;-82
2022/05/13 15:08:52;;;;;;;2.27;1.50;;;26.80;55.70;;;;;;5056636;28;20460;-82
2022/05/13 15:11:38;;;;;;;4.13;1.70;;;26.60;57.10;;;;;;5058719;28;20420;-82
2022/05/13 15:14:24;;;;;;;2.20;1.73;;;26.60;55.30;;;;;;5050495;28;20471;-81
2022/05/13 15:17:13;;;;;;;2.00;1.90;;;26.20;54.80;;;;;;5050459;28;20432;-79
2022/05/13 15:20:01;;;;;;;3.57;2.00;;;26.10;56.10;;;;;;5044215;28;20419;-80
2022/05/13 15:22:45;;;;;;;2.50;1.87;;;25.80;55.30;;;;;;5048982;28;20506;-80